sensor_id;sensor_type;location;lat;lon;timestamp;P1;durP1;ratioP1;P2;durP2;ratioP2
55497;SDS011;41357;52.806;18.268;2023-07-29T00:01:53;6.55;;;3.72;;
55497;SDS011;41357;52.806;18.268;2023-07-29T00:04:20;5.25;;;3.08;;
55497;SDS011;41357;52.806;18.268;2023-07-29T00:06:46;5.70;;;3.17;;
55497;SDS011;41357;52.806;18.268;2023-07-29T00:09:12;6.38;;;3.22;;
55497;SDS011;41357;52.806;18.268;2023-07-29T00:11:38;7.25;;;3.35;;
55497;SDS011;41357;52.806;18.268;2023-07-29T00:14:04;5.43;;;3.28;;
55497;SDS011;41357;52.806;18.268;2023-07-29T00:16:30;8.60;;;3.40;;
55497;SDS011;41357;52.806;18.268;2023-07-29T00:18:59;5.35;;;3.47;;
55497;SDS011;41357;52.806;18.268;2023-07-29T00:21:25;8.63;;;3.20;;
55497;SDS011;41357;52.806;18.268;2023-07-29T00:23:51;5.60;;;3.50;;
55497;SDS011;41357;52.806;18.268;2023-07-29T00:26:18;7.40;;;3.47;;
55497;SDS011;41357;52.806;18.268;2023-07-29T00:28:44;7.43;;;3.90;;
55497;SDS011;41357;52.806;18.268;2023-07-29T00:31:10;5.90;;;4.20;;
55497;SDS011;41357;52.806;18.268;2023-07-29T00:33:37;11.38;;;4.00;;
55497;SDS011;41357;52.806;18.268;2023-07-29T00:36:03;7.50;;;3.92;;
55497;SDS011;41357;52.806;18.268;2023-07-29T00:38:29;7.03;;;4.32;;
55497;SDS011;41357;52.806;18.268;2023-07-29T00:40:57;13.25;;;4.15;;
55497;SDS011;41357;52.806;18.268;2023-07-29T00:43:24;9.88;;;4.30;;
55497;SDS011;41357;52.806;18.268;2023-07-29T00:45:50;8.50;;;4.50;;
55497;SDS011;41357;52.806;18.268;2023-07-29T00:48:16;5.30;;;3.65;;
55497;SDS011;41357;52.806;18.268;2023-07-29T00:50:42;5.60;;;3.20;;
55497;SDS011;41357;52.806;18.268;2023-07-29T00:53:09;9.65;;;4.13;;
55497;SDS011;41357;52.806;18.268;2023-07-29T00:55:35;6.90;;;4.20;;
55497;SDS011;41357;52.806;18.268;2023-07-29T00:58:02;4.45;;;3.72;;
55497;SDS011;41357;52.806;18.268;2023-07-29T01:00:29;5.53;;;3.60;;
55497;SDS011;41357;52.806;18.268;2023-07-29T01:02:55;7.20;;;3.90;;
55497;SDS011;41357;52.806;18.268;2023-07-29T01:05:22;7.40;;;3.92;;
55497;SDS011;41357;52.806;18.268;2023-07-29T01:10:26;7.53;;;4.00;;
55497;SDS011;41357;52.806;18.268;2023-07-29T01:12:56;6.57;;;3.92;;
55497;SDS011;41357;52.806;18.268;2023-07-29T01:15:43;7.75;;;3.95;;
55497;SDS011;41357;52.806;18.268;2023-07-29T01:18:14;7.88;;;3.63;;
55497;SDS011;41357;52.806;18.268;2023-07-29T01:20:45;5.15;;;4.07;;
55497;SDS011;41357;52.806;18.268;2023-07-29T01:23:12;8.88;;;3.90;;
55497;SDS011;41357;52.806;18.268;2023-07-29T01:25:38;9.93;;;4.00;;
55497;SDS011;41357;52.806;18.268;2023-07-29T01:28:04;8.45;;;3.95;;
55497;SDS011;41357;52.806;18.268;2023-07-29T01:30:31;5.72;;;3.70;;
55497;SDS011;41357;52.806;18.268;2023-07-29T01:36:18;8.88;;;4.00;;
55497;SDS011;41357;52.806;18.268;2023-07-29T01:38:36;7.13;;;3.95;;
55497;SDS011;41357;52.806;18.268;2023-07-29T01:41:04;7.28;;;3.92;;
55497;SDS011;41357;52.806;18.268;2023-07-29T01:43:32;7.78;;;4.13;;
55497;SDS011;41357;52.806;18.268;2023-07-29T01:45:58;9.10;;;4.13;;
55497;SDS011;41357;52.806;18.268;2023-07-29T01:48:26;7.38;;;4.80;;
55497;SDS011;41357;52.806;18.268;2023-07-29T01:50:55;7.47;;;4.03;;
55497;SDS011;41357;52.806;18.268;2023-07-29T01:53:21;6.20;;;3.97;;
55497;SDS011;41357;52.806;18.268;2023-07-29T01:55:47;7.20;;;4.13;;
55497;SDS011;41357;52.806;18.268;2023-07-29T01:58:13;8.80;;;4.43;;
55497;SDS011;41357;52.806;18.268;2023-07-29T02:00:40;6.53;;;4.20;;
55497;SDS011;41357;52.806;18.268;2023-07-29T02:03:09;6.80;;;5.18;;
55497;SDS011;41357;52.806;18.268;2023-07-29T02:05:35;5.25;;;4.07;;
55497;SDS011;41357;52.806;18.268;2023-07-29T02:08:01;7.10;;;4.40;;
55497;SDS011;41357;52.806;18.268;2023-07-29T02:10:27;6.47;;;4.25;;
55497;SDS011;41357;52.806;18.268;2023-07-29T02:12:53;6.15;;;4.88;;
55497;SDS011;41357;52.806;18.268;2023-07-29T02:15:19;8.05;;;4.55;;
55497;SDS011;41357;52.806;18.268;2023-07-29T02:17:45;6.63;;;4.28;;
55497;SDS011;41357;52.806;18.268;2023-07-29T02:20:11;5.57;;;4.78;;
55497;SDS011;41357;52.806;18.268;2023-07-29T02:22:38;8.68;;;4.50;;
55497;SDS011;41357;52.806;18.268;2023-07-29T02:25:04;8.57;;;4.82;;
55497;SDS011;41357;52.806;18.268;2023-07-29T02:27:30;7.22;;;5.20;;
55497;SDS011;41357;52.806;18.268;2023-07-29T02:29:57;6.10;;;4.57;;
55497;SDS011;41357;52.806;18.268;2023-07-29T02:32:23;8.73;;;5.20;;
55497;SDS011;41357;52.806;18.268;2023-07-29T02:34:49;6.47;;;5.07;;
55497;SDS011;41357;52.806;18.268;2023-07-29T02:37:15;11.85;;;5.07;;
55497;SDS011;41357;52.806;18.268;2023-07-29T02:39:42;7.53;;;5.20;;
55497;SDS011;41357;52.806;18.268;2023-07-29T02:42:08;8.35;;;5.43;;
55497;SDS011;41357;52.806;18.268;2023-07-29T02:44:34;7.65;;;5.20;;
55497;SDS011;41357;52.806;18.268;2023-07-29T02:47:00;7.22;;;4.93;;
55497;SDS011;41357;52.806;18.268;2023-07-29T02:49:26;9.80;;;4.30;;
55497;SDS011;41357;52.806;18.268;2023-07-29T02:51:52;10.25;;;4.82;;
55497;SDS011;41357;52.806;18.268;2023-07-29T02:54:18;11.13;;;5.07;;
55497;SDS011;41357;52.806;18.268;2023-07-29T02:56:44;7.68;;;4.90;;
55497;SDS011;41357;52.806;18.268;2023-07-29T02:59:10;11.15;;;5.07;;
55497;SDS011;41357;52.806;18.268;2023-07-29T03:01:37;7.65;;;5.35;;
55497;SDS011;41357;52.806;18.268;2023-07-29T03:04:03;5.57;;;4.43;;
55497;SDS011;41357;52.806;18.268;2023-07-29T03:06:29;6.40;;;4.18;;
55497;SDS011;41357;52.806;18.268;2023-07-29T03:08:55;7.80;;;5.10;;
55497;SDS011;41357;52.806;18.268;2023-07-29T03:11:22;6.25;;;4.20;;
55497;SDS011;41357;52.806;18.268;2023-07-29T03:13:48;6.65;;;4.15;;
55497;SDS011;41357;52.806;18.268;2023-07-29T03:16:15;5.43;;;3.63;;
55497;SDS011;41357;52.806;18.268;2023-07-29T03:18:42;7.05;;;5.38;;
55497;SDS011;41357;52.806;18.268;2023-07-29T03:21:08;7.50;;;5.10;;
55497;SDS011;41357;52.806;18.268;2023-07-29T03:23:34;6.38;;;4.47;;
55497;SDS011;41357;52.806;18.268;2023-07-29T03:26:01;6.88;;;4.47;;
55497;SDS011;41357;52.806;18.268;2023-07-29T03:28:31;6.32;;;4.68;;
55497;SDS011;41357;52.806;18.268;2023-07-29T03:30:58;8.13;;;4.57;;
55497;SDS011;41357;52.806;18.268;2023-07-29T03:33:25;7.05;;;4.75;;
55497;SDS011;41357;52.806;18.268;2023-07-29T03:35:51;7.28;;;5.53;;
55497;SDS011;41357;52.806;18.268;2023-07-29T03:38:17;8.90;;;5.63;;
55497;SDS011;41357;52.806;18.268;2023-07-29T03:40:43;10.88;;;6.10;;
55497;SDS011;41357;52.806;18.268;2023-07-29T03:43:10;10.13;;;6.35;;
55497;SDS011;41357;52.806;18.268;2023-07-29T03:45:36;14.02;;;7.47;;
55497;SDS011;41357;52.806;18.268;2023-07-29T03:48:03;10.85;;;6.28;;
55497;SDS011;41357;52.806;18.268;2023-07-29T03:50:30;11.07;;;7.22;;
55497;SDS011;41357;52.806;18.268;2023-07-29T03:52:57;7.57;;;6.65;;
55497;SDS011;41357;52.806;18.268;2023-07-29T03:55:23;10.70;;;7.28;;
55497;SDS011;41357;52.806;18.268;2023-07-29T03:57:49;10.35;;;6.90;;
55497;SDS011;41357;52.806;18.268;2023-07-29T04:00:15;9.73;;;6.80;;
55497;SDS011;41357;52.806;18.268;2023-07-29T04:02:41;9.85;;;6.85;;
55497;SDS011;41357;52.806;18.268;2023-07-29T04:05:08;9.25;;;6.22;;
55497;SDS011;41357;52.806;18.268;2023-07-29T04:07:35;12.18;;;7.30;;
55497;SDS011;41357;52.806;18.268;2023-07-29T04:10:01;12.63;;;10.10;;
55497;SDS011;41357;52.806;18.268;2023-07-29T04:12:27;27.55;;;16.10;;
55497;SDS011;41357;52.806;18.268;2023-07-29T04:14:54;15.80;;;11.13;;
55497;SDS011;41357;52.806;18.268;2023-07-29T04:17:20;19.55;;;12.50;;
55497;SDS011;41357;52.806;18.268;2023-07-29T04:19:46;34.20;;;17.70;;
55497;SDS011;41357;52.806;18.268;2023-07-29T04:22:12;21.33;;;11.05;;
55497;SDS011;41357;52.806;18.268;2023-07-29T04:24:38;13.38;;;9.02;;
55497;SDS011;41357;52.806;18.268;2023-07-29T04:27:04;11.10;;;7.32;;
55497;SDS011;41357;52.806;18.268;2023-07-29T04:29:31;10.98;;;6.88;;
55497;SDS011;41357;52.806;18.268;2023-07-29T04:31:57;11.38;;;6.47;;
55497;SDS011;41357;52.806;18.268;2023-07-29T04:34:23;8.88;;;6.70;;
55497;SDS011;41357;52.806;18.268;2023-07-29T04:36:49;13.13;;;6.70;;
55497;SDS011;41357;52.806;18.268;2023-07-29T04:39:15;8.52;;;6.32;;
55497;SDS011;41357;52.806;18.268;2023-07-29T04:41:41;8.65;;;6.75;;
55497;SDS011;41357;52.806;18.268;2023-07-29T04:44:07;10.55;;;7.60;;
55497;SDS011;41357;52.806;18.268;2023-07-29T04:46:33;8.23;;;6.40;;
55497;SDS011;41357;52.806;18.268;2023-07-29T04:48:59;10.27;;;6.97;;
55497;SDS011;41357;52.806;18.268;2023-07-29T04:51:25;7.90;;;6.72;;
55497;SDS011;41357;52.806;18.268;2023-07-29T04:53:52;11.05;;;7.35;;
55497;SDS011;41357;52.806;18.268;2023-07-29T04:56:18;7.97;;;6.60;;
55497;SDS011;41357;52.806;18.268;2023-07-29T04:58:44;10.15;;;7.18;;
55497;SDS011;41357;52.806;18.268;2023-07-29T05:01:10;11.77;;;6.70;;
55497;SDS011;41357;52.806;18.268;2023-07-29T05:03:36;17.83;;;7.90;;
55497;SDS011;41357;52.806;18.268;2023-07-29T05:06:04;9.38;;;7.22;;
55497;SDS011;41357;52.806;18.268;2023-07-29T05:08:31;9.07;;;6.82;;
55497;SDS011;41357;52.806;18.268;2023-07-29T05:10:57;11.15;;;7.60;;
55497;SDS011;41357;52.806;18.268;2023-07-29T05:13:23;15.23;;;7.68;;
55497;SDS011;41357;52.806;18.268;2023-07-29T05:15:49;11.70;;;7.93;;
55497;SDS011;41357;52.806;18.268;2023-07-29T05:18:16;11.82;;;7.55;;
55497;SDS011;41357;52.806;18.268;2023-07-29T05:20:42;10.30;;;7.68;;
55497;SDS011;41357;52.806;18.268;2023-07-29T05:23:08;15.60;;;7.68;;
55497;SDS011;41357;52.806;18.268;2023-07-29T05:25:34;11.27;;;6.85;;
55497;SDS011;41357;52.806;18.268;2023-07-29T05:28:01;12.15;;;6.50;;
55497;SDS011;41357;52.806;18.268;2023-07-29T05:30:27;7.00;;;5.55;;
55497;SDS011;41357;52.806;18.268;2023-07-29T05:32:57;8.50;;;5.75;;
55497;SDS011;41357;52.806;18.268;2023-07-29T05:35:23;8.00;;;5.90;;
55497;SDS011;41357;52.806;18.268;2023-07-29T05:37:50;10.55;;;6.75;;
55497;SDS011;41357;52.806;18.268;2023-07-29T05:40:16;11.25;;;7.53;;
55497;SDS011;41357;52.806;18.268;2023-07-29T05:42:42;11.57;;;7.60;;
55497;SDS011;41357;52.806;18.268;2023-07-29T05:45:10;13.38;;;8.68;;
55497;SDS011;41357;52.806;18.268;2023-07-29T05:47:36;13.43;;;8.52;;
55497;SDS011;41357;52.806;18.268;2023-07-29T05:50:02;19.00;;;9.00;;
55497;SDS011;41357;52.806;18.268;2023-07-29T05:52:32;21.73;;;9.85;;
55497;SDS011;41357;52.806;18.268;2023-07-29T05:54:59;14.30;;;8.45;;
55497;SDS011;41357;52.806;18.268;2023-07-29T05:57:25;11.55;;;6.28;;
55497;SDS011;41357;52.806;18.268;2023-07-29T05:59:51;9.80;;;6.00;;
55497;SDS011;41357;52.806;18.268;2023-07-29T06:02:17;10.80;;;6.93;;
55497;SDS011;41357;52.806;18.268;2023-07-29T06:04:43;11.85;;;6.75;;
55497;SDS011;41357;52.806;18.268;2023-07-29T06:07:09;15.40;;;7.00;;
55497;SDS011;41357;52.806;18.268;2023-07-29T06:09:36;14.48;;;6.55;;
55497;SDS011;41357;52.806;18.268;2023-07-29T06:12:02;11.38;;;5.97;;
55497;SDS011;41357;52.806;18.268;2023-07-29T06:14:28;11.13;;;6.45;;
55497;SDS011;41357;52.806;18.268;2023-07-29T06:16:54;14.52;;;6.30;;
55497;SDS011;41357;52.806;18.268;2023-07-29T06:19:21;9.48;;;6.32;;
55497;SDS011;41357;52.806;18.268;2023-07-29T06:21:48;14.98;;;7.30;;
55497;SDS011;41357;52.806;18.268;2023-07-29T06:24:14;17.73;;;7.55;;
55497;SDS011;41357;52.806;18.268;2023-07-29T06:26:40;13.95;;;6.68;;
55497;SDS011;41357;52.806;18.268;2023-07-29T06:29:06;13.65;;;5.95;;
55497;SDS011;41357;52.806;18.268;2023-07-29T06:31:32;12.23;;;6.45;;
55497;SDS011;41357;52.806;18.268;2023-07-29T06:33:58;10.35;;;6.28;;
55497;SDS011;41357;52.806;18.268;2023-07-29T06:36:24;11.25;;;6.88;;
55497;SDS011;41357;52.806;18.268;2023-07-29T06:38:50;12.88;;;6.47;;
55497;SDS011;41357;52.806;18.268;2023-07-29T06:41:16;14.13;;;5.65;;
55497;SDS011;41357;52.806;18.268;2023-07-29T06:43:42;13.65;;;6.38;;
55497;SDS011;41357;52.806;18.268;2023-07-29T06:46:11;12.38;;;5.90;;
55497;SDS011;41357;52.806;18.268;2023-07-29T06:48:37;10.57;;;6.40;;
55497;SDS011;41357;52.806;18.268;2023-07-29T06:51:04;11.40;;;5.85;;
55497;SDS011;41357;52.806;18.268;2023-07-29T06:53:30;7.03;;;5.05;;
55497;SDS011;41357;52.806;18.268;2023-07-29T06:55:56;13.70;;;5.80;;
55497;SDS011;41357;52.806;18.268;2023-07-29T06:58:22;10.15;;;5.20;;
55497;SDS011;41357;52.806;18.268;2023-07-29T07:00:49;11.82;;;5.57;;
55497;SDS011;41357;52.806;18.268;2023-07-29T07:03:15;7.07;;;5.00;;
55497;SDS011;41357;52.806;18.268;2023-07-29T07:05:41;11.23;;;4.90;;
55497;SDS011;41357;52.806;18.268;2023-07-29T07:08:07;8.70;;;4.88;;
55497;SDS011;41357;52.806;18.268;2023-07-29T07:10:33;11.60;;;4.55;;
55497;SDS011;41357;52.806;18.268;2023-07-29T07:12:59;5.68;;;3.97;;
55497;SDS011;41357;52.806;18.268;2023-07-29T07:15:25;7.13;;;4.15;;
55497;SDS011;41357;52.806;18.268;2023-07-29T07:17:52;8.13;;;4.00;;
55497;SDS011;41357;52.806;18.268;2023-07-29T07:20:18;7.97;;;4.57;;
55497;SDS011;41357;52.806;18.268;2023-07-29T07:22:44;6.68;;;4.20;;
55497;SDS011;41357;52.806;18.268;2023-07-29T07:25:10;9.38;;;5.07;;
55497;SDS011;41357;52.806;18.268;2023-07-29T07:27:36;10.25;;;4.95;;
55497;SDS011;41357;52.806;18.268;2023-07-29T07:30:03;6.68;;;3.58;;
55497;SDS011;41357;52.806;18.268;2023-07-29T07:32:29;6.40;;;4.03;;
55497;SDS011;41357;52.806;18.268;2023-07-29T07:34:56;4.05;;;2.60;;
55497;SDS011;41357;52.806;18.268;2023-07-29T07:37:22;2.97;;;2.65;;
55497;SDS011;41357;52.806;18.268;2023-07-29T07:39:48;3.17;;;2.40;;
55497;SDS011;41357;52.806;18.268;2023-07-29T07:42:14;4.03;;;2.42;;
55497;SDS011;41357;52.806;18.268;2023-07-29T07:44:40;5.43;;;2.65;;
55497;SDS011;41357;52.806;18.268;2023-07-29T07:47:06;3.50;;;2.90;;
55497;SDS011;41357;52.806;18.268;2023-07-29T07:49:32;5.38;;;2.90;;
55497;SDS011;41357;52.806;18.268;2023-07-29T07:51:58;6.53;;;2.97;;
55497;SDS011;41357;52.806;18.268;2023-07-29T07:54:24;5.07;;;3.63;;
55497;SDS011;41357;52.806;18.268;2023-07-29T07:56:50;3.22;;;2.72;;
55497;SDS011;41357;52.806;18.268;2023-07-29T07:59:17;3.45;;;2.45;;
55497;SDS011;41357;52.806;18.268;2023-07-29T08:01:43;4.40;;;2.63;;
55497;SDS011;41357;52.806;18.268;2023-07-29T08:04:09;8.25;;;3.50;;
55497;SDS011;41357;52.806;18.268;2023-07-29T08:06:35;6.72;;;3.50;;
55497;SDS011;41357;52.806;18.268;2023-07-29T08:09:01;7.55;;;4.30;;
55497;SDS011;41357;52.806;18.268;2023-07-29T08:11:27;6.03;;;4.40;;
55497;SDS011;41357;52.806;18.268;2023-07-29T08:13:53;5.10;;;3.67;;
55497;SDS011;41357;52.806;18.268;2023-07-29T08:16:19;3.40;;;2.83;;
55497;SDS011;41357;52.806;18.268;2023-07-29T08:18:46;4.22;;;2.65;;
55497;SDS011;41357;52.806;18.268;2023-07-29T08:21:12;7.63;;;3.28;;
55497;SDS011;41357;52.806;18.268;2023-07-29T08:23:38;4.75;;;3.30;;
55497;SDS011;41357;52.806;18.268;2023-07-29T08:26:05;6.20;;;4.72;;
55497;SDS011;41357;52.806;18.268;2023-07-29T08:28:35;5.22;;;4.07;;
55497;SDS011;41357;52.806;18.268;2023-07-29T08:31:01;7.47;;;3.58;;
55497;SDS011;41357;52.806;18.268;2023-07-29T08:33:29;3.65;;;2.80;;
55497;SDS011;41357;52.806;18.268;2023-07-29T08:35:55;6.75;;;3.05;;
55497;SDS011;41357;52.806;18.268;2023-07-29T08:38:22;5.10;;;3.00;;
55497;SDS011;41357;52.806;18.268;2023-07-29T08:43:18;5.10;;;2.60;;
55497;SDS011;41357;52.806;18.268;2023-07-29T08:45:46;5.07;;;2.83;;
55497;SDS011;41357;52.806;18.268;2023-07-29T08:48:12;3.20;;;2.60;;
55497;SDS011;41357;52.806;18.268;2023-07-29T08:50:38;7.40;;;3.30;;
55497;SDS011;41357;52.806;18.268;2023-07-29T08:53:05;2.97;;;2.20;;
55497;SDS011;41357;52.806;18.268;2023-07-29T08:55:31;2.42;;;1.75;;
55497;SDS011;41357;52.806;18.268;2023-07-29T08:57:58;2.67;;;2.15;;
55497;SDS011;41357;52.806;18.268;2023-07-29T09:00:25;3.03;;;2.00;;
55497;SDS011;41357;52.806;18.268;2023-07-29T09:02:51;2.63;;;1.98;;
55497;SDS011;41357;52.806;18.268;2023-07-29T09:05:17;3.72;;;2.63;;
55497;SDS011;41357;52.806;18.268;2023-07-29T09:07:44;2.70;;;2.47;;
55497;SDS011;41357;52.806;18.268;2023-07-29T09:10:11;6.72;;;3.88;;
55497;SDS011;41357;52.806;18.268;2023-07-29T09:12:39;2.15;;;1.70;;
55497;SDS011;41357;52.806;18.268;2023-07-29T09:15:05;1.90;;;1.67;;
55497;SDS011;41357;52.806;18.268;2023-07-29T09:17:35;3.78;;;2.10;;
55497;SDS011;41357;52.806;18.268;2023-07-29T09:20:01;3.92;;;2.92;;
55497;SDS011;41357;52.806;18.268;2023-07-29T09:22:27;5.38;;;3.40;;
55497;SDS011;41357;52.806;18.268;2023-07-29T09:24:53;3.00;;;2.50;;
55497;SDS011;41357;52.806;18.268;2023-07-29T09:27:26;2.80;;;2.10;;
55497;SDS011;41357;52.806;18.268;2023-07-29T09:29:53;2.40;;;2.00;;
55497;SDS011;41357;52.806;18.268;2023-07-29T09:32:20;3.30;;;2.05;;
55497;SDS011;41357;52.806;18.268;2023-07-29T09:34:46;2.55;;;1.90;;
55497;SDS011;41357;52.806;18.268;2023-07-29T09:37:31;5.15;;;2.22;;
55497;SDS011;41357;52.806;18.268;2023-07-29T09:39:58;4.50;;;1.52;;
55497;SDS011;41357;52.806;18.268;2023-07-29T09:42:24;1.88;;;1.30;;
55497;SDS011;41357;52.806;18.268;2023-07-29T09:44:50;2.10;;;1.55;;
55497;SDS011;41357;52.806;18.268;2023-07-29T09:47:23;1.92;;;1.20;;
55497;SDS011;41357;52.806;18.268;2023-07-29T09:49:50;1.52;;;0.90;;
55497;SDS011;41357;52.806;18.268;2023-07-29T09:52:20;2.13;;;1.50;;
55497;SDS011;41357;52.806;18.268;2023-07-29T09:54:47;2.50;;;0.85;;
55497;SDS011;41357;52.806;18.268;2023-07-29T09:57:14;1.70;;;1.02;;
55497;SDS011;41357;52.806;18.268;2023-07-29T09:59:40;4.25;;;1.50;;
55497;SDS011;41357;52.806;18.268;2023-07-29T10:02:08;1.70;;;1.40;;
55497;SDS011;41357;52.806;18.268;2023-07-29T10:04:36;2.65;;;1.17;;
55497;SDS011;41357;52.806;18.268;2023-07-29T10:07:02;2.25;;;1.30;;
55497;SDS011;41357;52.806;18.268;2023-07-29T10:09:28;3.25;;;1.65;;
55497;SDS011;41357;52.806;18.268;2023-07-29T10:11:55;1.75;;;1.27;;
55497;SDS011;41357;52.806;18.268;2023-07-29T10:14:22;2.30;;;1.20;;
55497;SDS011;41357;52.806;18.268;2023-07-29T10:16:48;3.50;;;1.35;;
55497;SDS011;41357;52.806;18.268;2023-07-29T10:19:15;3.38;;;1.20;;
55497;SDS011;41357;52.806;18.268;2023-07-29T10:21:43;1.63;;;1.15;;
55497;SDS011;41357;52.806;18.268;2023-07-29T10:24:11;1.60;;;1.20;;
55497;SDS011;41357;52.806;18.268;2023-07-29T10:26:41;2.75;;;1.10;;
55497;SDS011;41357;52.806;18.268;2023-07-29T10:29:07;5.65;;;1.20;;
55497;SDS011;41357;52.806;18.268;2023-07-29T10:31:36;3.35;;;1.30;;
55497;SDS011;41357;52.806;18.268;2023-07-29T10:34:03;2.53;;;1.40;;
55497;SDS011;41357;52.806;18.268;2023-07-29T10:36:29;5.22;;;1.20;;
55497;SDS011;41357;52.806;18.268;2023-07-29T10:38:55;3.42;;;1.35;;
55497;SDS011;41357;52.806;18.268;2023-07-29T10:41:22;1.40;;;1.00;;
55497;SDS011;41357;52.806;18.268;2023-07-29T10:43:48;2.72;;;1.15;;
55497;SDS011;41357;52.806;18.268;2023-07-29T10:48:44;1.25;;;0.90;;
55497;SDS011;41357;52.806;18.268;2023-07-29T10:54:02;1.88;;;1.10;;
55497;SDS011;41357;52.806;18.268;2023-07-29T10:56:30;2.00;;;1.10;;
55497;SDS011;41357;52.806;18.268;2023-07-29T10:58:57;1.10;;;0.90;;
55497;SDS011;41357;52.806;18.268;2023-07-29T11:01:27;1.13;;;1.00;;
55497;SDS011;41357;52.806;18.268;2023-07-29T11:06:19;1.63;;;1.17;;
55497;SDS011;41357;52.806;18.268;2023-07-29T11:08:45;1.35;;;0.90;;
55497;SDS011;41357;52.806;18.268;2023-07-29T11:11:11;1.10;;;1.00;;
55497;SDS011;41357;52.806;18.268;2023-07-29T11:13:38;2.22;;;1.10;;
55497;SDS011;41357;52.806;18.268;2023-07-29T11:16:04;1.08;;;0.98;;
55497;SDS011;41357;52.806;18.268;2023-07-29T11:18:31;2.95;;;1.15;;
55497;SDS011;41357;52.806;18.268;2023-07-29T11:20:59;1.60;;;0.90;;
55497;SDS011;41357;52.806;18.268;2023-07-29T11:23:32;2.15;;;1.20;;
55497;SDS011;41357;52.806;18.268;2023-07-29T11:25:59;1.20;;;1.00;;
55497;SDS011;41357;52.806;18.268;2023-07-29T11:28:25;1.20;;;1.10;;
55497;SDS011;41357;52.806;18.268;2023-07-29T11:30:52;2.30;;;1.33;;
55497;SDS011;41357;52.806;18.268;2023-07-29T11:33:19;1.95;;;1.08;;
55497;SDS011;41357;52.806;18.268;2023-07-29T11:35:45;1.90;;;1.25;;
55497;SDS011;41357;52.806;18.268;2023-07-29T11:38:15;1.45;;;0.95;;
55497;SDS011;41357;52.806;18.268;2023-07-29T11:40:41;3.15;;;1.00;;
55497;SDS011;41357;52.806;18.268;2023-07-29T11:43:07;1.73;;;1.10;;
55497;SDS011;41357;52.806;18.268;2023-07-29T11:45:34;1.55;;;1.02;;
55497;SDS011;41357;52.806;18.268;2023-07-29T11:48:03;2.95;;;1.20;;
55497;SDS011;41357;52.806;18.268;2023-07-29T11:50:29;1.17;;;1.00;;
55497;SDS011;41357;52.806;18.268;2023-07-29T11:52:55;1.63;;;1.35;;
55497;SDS011;41357;52.806;18.268;2023-07-29T11:55:22;1.02;;;0.93;;
55497;SDS011;41357;52.806;18.268;2023-07-29T11:57:50;1.08;;;0.75;;
55497;SDS011;41357;52.806;18.268;2023-07-29T12:00:17;1.50;;;0.98;;
55497;SDS011;41357;52.806;18.268;2023-07-29T12:02:43;2.58;;;1.20;;
55497;SDS011;41357;52.806;18.268;2023-07-29T12:05:10;1.77;;;1.10;;
55497;SDS011;41357;52.806;18.268;2023-07-29T12:07:40;3.85;;;1.27;;
55497;SDS011;41357;52.806;18.268;2023-07-29T12:12:33;2.08;;;1.10;;
55497;SDS011;41357;52.806;18.268;2023-07-29T12:15:03;1.13;;;0.95;;
55497;SDS011;41357;52.806;18.268;2023-07-29T12:17:30;1.15;;;1.00;;
55497;SDS011;41357;52.806;18.268;2023-07-29T12:19:56;1.67;;;1.20;;
55497;SDS011;41357;52.806;18.268;2023-07-29T12:22:25;1.52;;;1.25;;
55497;SDS011;41357;52.806;18.268;2023-07-29T12:24:51;2.38;;;1.20;;
55497;SDS011;41357;52.806;18.268;2023-07-29T12:27:18;1.38;;;1.10;;
55497;SDS011;41357;52.806;18.268;2023-07-29T12:32:14;3.25;;;1.30;;
55497;SDS011;41357;52.806;18.268;2023-07-29T12:34:40;3.25;;;1.38;;
55497;SDS011;41357;52.806;18.268;2023-07-29T12:37:06;1.58;;;1.40;;
55497;SDS011;41357;52.806;18.268;2023-07-29T12:39:34;2.72;;;1.30;;
55497;SDS011;41357;52.806;18.268;2023-07-29T12:42:01;3.67;;;1.35;;
55497;SDS011;41357;52.806;18.268;2023-07-29T12:44:30;3.38;;;1.20;;
55497;SDS011;41357;52.806;18.268;2023-07-29T12:46:56;3.58;;;1.48;;
55497;SDS011;41357;52.806;18.268;2023-07-29T12:49:22;2.17;;;1.33;;
55497;SDS011;41357;52.806;18.268;2023-07-29T12:51:49;1.45;;;1.30;;
55497;SDS011;41357;52.806;18.268;2023-07-29T12:54:15;1.40;;;1.30;;
55497;SDS011;41357;52.806;18.268;2023-07-29T12:56:42;2.88;;;1.70;;
55497;SDS011;41357;52.806;18.268;2023-07-29T12:59:08;1.67;;;1.40;;
55497;SDS011;41357;52.806;18.268;2023-07-29T13:01:34;2.30;;;1.38;;
55497;SDS011;41357;52.806;18.268;2023-07-29T13:04:00;1.70;;;1.30;;
55497;SDS011;41357;52.806;18.268;2023-07-29T13:06:26;1.92;;;1.48;;
55497;SDS011;41357;52.806;18.268;2023-07-29T13:08:52;2.70;;;1.52;;
55497;SDS011;41357;52.806;18.268;2023-07-29T13:11:18;2.05;;;1.80;;
55497;SDS011;41357;52.806;18.268;2023-07-29T13:13:44;2.13;;;1.70;;
55497;SDS011;41357;52.806;18.268;2023-07-29T13:16:11;4.15;;;2.25;;
55497;SDS011;41357;52.806;18.268;2023-07-29T13:18:38;5.78;;;1.70;;
55497;SDS011;41357;52.806;18.268;2023-07-29T13:21:04;1.98;;;1.50;;
55497;SDS011;41357;52.806;18.268;2023-07-29T13:23:30;2.97;;;1.83;;
55497;SDS011;41357;52.806;18.268;2023-07-29T13:25:57;3.17;;;1.50;;
55497;SDS011;41357;52.806;18.268;2023-07-29T13:28:23;2.63;;;2.00;;
55497;SDS011;41357;52.806;18.268;2023-07-29T13:30:51;2.28;;;1.60;;
55497;SDS011;41357;52.806;18.268;2023-07-29T13:33:17;3.05;;;1.90;;
55497;SDS011;41357;52.806;18.268;2023-07-29T13:35:43;2.47;;;1.70;;
55497;SDS011;41357;52.806;18.268;2023-07-29T13:38:09;1.60;;;1.30;;
55497;SDS011;41357;52.806;18.268;2023-07-29T13:40:36;2.15;;;1.70;;
55497;SDS011;41357;52.806;18.268;2023-07-29T13:43:02;2.88;;;2.25;;
55497;SDS011;41357;52.806;18.268;2023-07-29T13:45:28;3.05;;;2.00;;
55497;SDS011;41357;52.806;18.268;2023-07-29T13:48:00;2.67;;;2.30;;
55497;SDS011;41357;52.806;18.268;2023-07-29T13:50:26;2.28;;;1.63;;
55497;SDS011;41357;52.806;18.268;2023-07-29T13:52:52;6.45;;;2.20;;
55497;SDS011;41357;52.806;18.268;2023-07-29T13:55:18;2.97;;;1.90;;
55497;SDS011;41357;52.806;18.268;2023-07-29T13:57:44;2.30;;;1.88;;
55497;SDS011;41357;52.806;18.268;2023-07-29T14:00:10;3.15;;;2.00;;
55497;SDS011;41357;52.806;18.268;2023-07-29T14:02:36;2.67;;;1.60;;
55497;SDS011;41357;52.806;18.268;2023-07-29T14:05:03;3.20;;;1.85;;
55497;SDS011;41357;52.806;18.268;2023-07-29T14:07:29;3.88;;;2.10;;
55497;SDS011;41357;52.806;18.268;2023-07-29T14:09:55;5.05;;;1.77;;
55497;SDS011;41357;52.806;18.268;2023-07-29T14:12:21;3.70;;;2.00;;
55497;SDS011;41357;52.806;18.268;2023-07-29T14:14:47;3.13;;;1.80;;
55497;SDS011;41357;52.806;18.268;2023-07-29T14:17:13;3.55;;;1.50;;
55497;SDS011;41357;52.806;18.268;2023-07-29T14:19:39;3.22;;;1.73;;
55497;SDS011;41357;52.806;18.268;2023-07-29T14:22:05;2.85;;;2.00;;
55497;SDS011;41357;52.806;18.268;2023-07-29T14:24:31;7.18;;;2.00;;
55497;SDS011;41357;52.806;18.268;2023-07-29T14:26:58;1.98;;;1.70;;
55497;SDS011;41357;52.806;18.268;2023-07-29T14:29:24;3.35;;;2.60;;
55497;SDS011;41357;52.806;18.268;2023-07-29T14:31:50;5.25;;;2.30;;
55497;SDS011;41357;52.806;18.268;2023-07-29T14:34:17;3.17;;;2.58;;
55497;SDS011;41357;52.806;18.268;2023-07-29T14:36:43;3.85;;;1.92;;
55497;SDS011;41357;52.806;18.268;2023-07-29T14:39:09;2.75;;;1.77;;
55497;SDS011;41357;52.806;18.268;2023-07-29T14:41:35;4.10;;;2.30;;
55497;SDS011;41357;52.806;18.268;2023-07-29T14:44:01;2.30;;;2.10;;
55497;SDS011;41357;52.806;18.268;2023-07-29T14:46:27;3.22;;;2.40;;
55497;SDS011;41357;52.806;18.268;2023-07-29T14:48:53;2.40;;;2.05;;